Time;durP1;ratioP1;P1;durP2;ratioP2;P2;SDS_P1;SDS_P2;PMS_P1;PMS_P2;Temp;Humidity;BMP_temperature;BMP_pressure;BME280_temperature;BME280_humidity;BME280_pressure;Samples;Min_cycle;Max_cycle;Signal;HPM_P1;HPM_P2
2021/03/09 00:00:55;;;;;;;13.77;9.93;;;2.60;99.90;;;;;;4944111;29;20872;-79
2021/03/09 00:03:21;;;;;;;15.50;11.40;;;2.70;99.90;;;;;;4941808;29;20160;-78
2021/03/09 00:05:47;;;;;;;24.73;10.90;;;2.70;99.90;;;;;;4926243;29;20164;-79
2021/03/09 00:08:13;;;;;;;14.43;11.47;;;2.70;99.90;;;;;;4943067;29;20671;-79
2021/03/09 00:10:40;;;;;;;16.90;10.70;;;2.70;99.90;;;;;;4944286;29;20165;-79
2021/03/09 00:13:06;;;;;;;15.47;10.53;;;2.70;99.90;;;;;;4943594;29;20400;-79
2021/03/09 00:15:32;;;;;;;14.40;9.27;;;2.60;99.90;;;;;;4944256;29;20973;-79
2021/03/09 00:17:57;;;;;;;19.30;11.63;;;2.60;99.90;;;;;;4943737;29;20160;-78
2021/03/09 00:20:23;;;;;;;23.10;12.00;;;2.60;99.90;;;;;;4943715;29;20856;-79
2021/03/09 00:22:49;;;;;;;11.83;10.47;;;2.50;99.90;;;;;;4943851;29;20204;-78
2021/03/09 00:25:15;;;;;;;13.20;9.60;;;2.40;99.90;;;;;;4943722;29;20165;-78
2021/03/09 00:27:41;;;;;;;11.60;9.77;;;2.30;99.90;;;;;;4942861;29;20628;-78
2021/03/09 00:30:07;;;;;;;11.93;9.17;;;2.40;99.90;;;;;;4941822;29;20203;-78
2021/03/09 00:32:33;;;;;;;18.20;10.57;;;2.40;99.90;;;;;;4942349;29;20175;-78
2021/03/09 00:34:59;;;;;;;22.33;11.83;;;2.50;99.90;;;;;;4941780;29;20443;-79
2021/03/09 00:37:25;;;;;;;12.83;8.97;;;2.40;99.90;;;;;;4940198;29;20803;-78
2021/03/09 00:39:50;;;;;;;14.80;9.77;;;2.50;99.90;;;;;;4924397;29;20215;-78
2021/03/09 00:42:16;;;;;;;18.90;10.87;;;2.50;99.90;;;;;;4938899;29;20458;-80
2021/03/09 00:44:42;;;;;;;14.00;10.23;;;2.50;99.90;;;;;;4942133;29;20165;-80
2021/03/09 00:47:08;;;;;;;15.60;9.00;;;2.40;99.90;;;;;;4941906;29;20172;-78
2021/03/09 00:49:34;;;;;;;17.87;12.00;;;2.40;99.90;;;;;;4941870;29;20175;-79
2021/03/09 00:52:00;;;;;;;20.60;10.33;;;2.50;99.90;;;;;;4943109;29;20225;-79
2021/03/09 00:54:26;;;;;;;19.33;10.17;;;2.40;99.90;;;;;;4941425;29;20464;-79
2021/03/09 00:56:51;;;;;;;17.50;10.90;;;2.30;99.90;;;;;;4942539;29;20160;-79
2021/03/09 00:59:17;;;;;;;21.93;10.97;;;2.30;99.90;;;;;;4942852;29;20166;-79
2021/03/09 01:01:43;;;;;;;18.37;10.80;;;2.30;99.90;;;;;;4950594;29;20193;-79
2021/03/09 01:04:09;;;;;;;17.07;11.27;;;2.30;99.90;;;;;;4955966;29;20606;-80
2021/03/09 01:06:34;;;;;;;23.30;9.83;;;2.30;99.90;;;;;;4941261;29;20172;-79
2021/03/09 01:09:00;;;;;;;22.70;10.30;;;2.10;99.90;;;;;;4942535;29;20589;-80
2021/03/09 01:11:26;;;;;;;14.30;8.67;;;2.10;99.90;;;;;;4942102;29;20176;-79
2021/03/09 01:13:52;;;;;;;20.17;10.60;;;2.10;99.90;;;;;;4942644;29;20255;-79
2021/03/09 01:16:17;;;;;;;18.73;10.07;;;2.10;99.90;;;;;;4942756;29;20168;-79
2021/03/09 01:18:43;;;;;;;17.20;11.90;;;2.10;99.90;;;;;;4941628;29;20164;-79
2021/03/09 01:21:09;;;;;;;17.40;12.57;;;2.10;99.90;;;;;;4942576;29;20594;-79
2021/03/09 01:23:35;;;;;;;14.73;10.10;;;2.10;99.90;;;;;;4942438;29;20200;-79
2021/03/09 01:26:00;;;;;;;16.93;11.03;;;2.10;99.90;;;;;;4942114;29;20239;-79
2021/03/09 01:28:26;;;;;;;15.80;10.13;;;2.20;99.90;;;;;;4941830;29;20625;-80
2021/03/09 01:30:52;;;;;;;16.17;10.63;;;2.30;99.90;;;;;;4942025;29;20165;-79
2021/03/09 01:33:18;;;;;;;14.27;9.70;;;2.20;99.90;;;;;;4942847;29;20168;-79
2021/03/09 01:35:44;;;;;;;19.60;11.00;;;2.30;99.90;;;;;;4941849;29;20196;-80
2021/03/09 01:38:09;;;;;;;20.00;10.80;;;2.30;99.90;;;;;;4942194;29;20553;-80
2021/03/09 01:40:35;;;;;;;14.63;9.87;;;2.30;99.90;;;;;;4941153;29;20423;-80
2021/03/09 01:43:02;;;;;;;14.00;11.27;;;2.30;99.90;;;;;;4941776;29;20560;-80
2021/03/09 01:45:28;;;;;;;15.47;10.20;;;2.20;99.90;;;;;;4942192;29;20196;-80
2021/03/09 01:48:01;;;;;;;13.17;8.80;;;2.10;99.90;;;;;;4941787;29;20400;-80
2021/03/09 01:50:28;;;;;;;17.33;10.87;;;2.10;99.90;;;;;;4942355;29;20191;-80
2021/03/09 01:52:54;;;;;;;20.40;10.77;;;1.90;99.90;;;;;;4940170;29;20408;-79
2021/03/09 01:55:21;;;;;;;11.60;8.57;;;1.80;99.90;;;;;;4941947;29;20454;-79
2021/03/09 01:57:49;;;;;;;14.60;8.60;;;2.10;99.90;;;;;;4943274;29;20491;-79
2021/03/09 02:00:15;;;;;;;14.77;8.87;;;2.10;99.90;;;;;;4942541;29;20396;-80
2021/03/09 02:02:41;;;;;;;18.97;10.10;;;2.20;99.90;;;;;;4943626;29;20536;-80
2021/03/09 02:05:09;;;;;;;17.83;9.97;;;2.10;99.90;;;;;;4944004;29;20464;-80
2021/03/09 02:07:36;;;;;;;19.87;9.80;;;2.10;99.90;;;;;;4941062;29;20597;-78
2021/03/09 02:10:04;;;;;;;15.60;10.70;;;2.00;99.90;;;;;;4939763;29;20411;-80
2021/03/09 02:12:43;;;;;;;20.23;11.77;;;2.10;99.90;;;;;;4941131;29;20415;-79
2021/03/09 02:15:30;;;;;;;23.80;13.40;;;2.00;99.90;;;;;;4939824;29;20904;-80
2021/03/09 02:18:09;;;;;;;15.30;10.30;;;1.80;99.90;;;;;;4940630;29;20386;-80
2021/03/09 02:21:04;;;;;;;23.00;11.93;;;1.80;99.90;;;;;;4941255;29;20453;-80
2021/03/09 02:23:54;;;;;;;23.33;11.30;;;1.90;99.90;;;;;;4940744;29;20570;-80
2021/03/09 02:26:32;;;;;;;16.67;9.77;;;1.80;99.90;;;;;;4940749;29;20404;-80
2021/03/09 02:29:31;;;;;;;20.20;10.60;;;1.80;99.90;;;;;;4940290;29;20748;-79
2021/03/09 02:31:57;;;;;;;33.00;10.30;;;1.80;99.90;;;;;;4939357;29;20905;-80
2021/03/09 02:34:30;;;;;;;19.40;10.93;;;1.90;99.90;;;;;;4941556;29;20465;-79
2021/03/09 02:36:58;;;;;;;12.60;8.20;;;1.90;99.90;;;;;;4942303;29;20522;-80
2021/03/09 02:39:26;;;;;;;14.83;9.70;;;1.90;99.90;;;;;;4944560;29;20398;-79
2021/03/09 02:41:56;;;;;;;14.63;9.27;;;1.80;99.90;;;;;;4946820;29;20447;-78
2021/03/09 02:44:24;;;;;;;16.10;10.70;;;1.90;99.90;;;;;;4958944;29;20446;-79
2021/03/09 02:46:51;;;;;;;18.63;11.13;;;1.90;99.90;;;;;;4959272;29;20420;-78
2021/03/09 02:49:18;;;;;;;15.57;9.40;;;1.90;99.90;;;;;;4959336;29;20416;-77
2021/03/09 02:51:46;;;;;;;27.17;12.80;;;2.00;99.90;;;;;;4959547;29;20400;-77
2021/03/09 02:54:15;;;;;;;20.77;10.60;;;2.00;99.90;;;;;;4950724;29;20801;-79
2021/03/09 02:56:43;;;;;;;11.90;8.97;;;2.00;99.90;;;;;;4940321;29;20375;-80
2021/03/09 02:59:13;;;;;;;17.10;10.20;;;2.00;99.90;;;;;;4940272;29;20400;-79
2021/03/09 03:01:44;;;;;;;14.43;10.07;;;2.00;99.90;;;;;;4940991;29;20411;-79
2021/03/09 03:04:14;;;;;;;13.60;9.00;;;2.00;99.90;;;;;;4940994;29;20407;-79
2021/03/09 03:06:44;;;;;;;23.23;14.00;;;2.00;99.90;;;;;;4944093;29;20820;-80
2021/03/09 03:09:11;;;;;;;12.57;8.33;;;2.10;99.90;;;;;;4944260;29;20454;-80
2021/03/09 03:11:40;;;;;;;19.80;10.10;;;2.00;99.90;;;;;;4944139;29;20400;-79
2021/03/09 03:14:07;;;;;;;13.73;9.90;;;1.70;99.90;;;;;;4943662;29;20456;-79
2021/03/09 03:16:37;;;;;;;14.10;9.93;;;1.90;99.90;;;;;;4944219;29;20399;-78
2021/03/09 03:19:05;;;;;;;11.97;9.60;;;1.90;99.90;;;;;;4946858;29;20865;-79
2021/03/09 03:21:33;;;;;;;22.27;11.87;;;1.90;99.90;;;;;;4944295;29;20402;-80
2021/03/09 03:24:02;;;;;;;19.03;11.70;;;1.90;99.90;;;;;;4943619;29;20406;-80
2021/03/09 03:26:29;;;;;;;18.83;12.07;;;1.90;99.90;;;;;;4943690;29;20960;-80
2021/03/09 03:28:56;;;;;;;19.43;12.57;;;1.80;99.90;;;;;;4944248;29;20599;-80
2021/03/09 03:31:22;;;;;;;21.97;10.10;;;1.60;99.90;;;;;;4942771;29;20403;-80
2021/03/09 03:33:49;;;;;;;19.20;11.23;;;1.80;99.90;;;;;;4942546;29;20502;-80
2021/03/09 03:36:16;;;;;;;23.73;15.10;;;1.70;99.90;;;;;;4943526;29;20431;-80
2021/03/09 03:38:42;;;;;;;20.60;12.10;;;1.70;99.90;;;;;;4943191;29;20456;-80
2021/03/09 03:41:10;;;;;;;12.83;10.33;;;1.60;99.90;;;;;;4943656;29;20404;-80
2021/03/09 03:43:37;;;;;;;11.63;8.37;;;1.80;99.90;;;;;;4943625;29;20487;-79
2021/03/09 03:46:05;;;;;;;22.43;12.00;;;1.80;99.90;;;;;;4943791;29;20423;-79
2021/03/09 03:48:34;;;;;;;17.50;9.03;;;1.90;99.90;;;;;;4947643;29;20419;-79
2021/03/09 03:51:01;;;;;;;27.53;15.30;;;1.90;99.90;;;;;;4959864;29;20938;-79
2021/03/09 03:53:41;;;;;;;18.40;12.00;;;1.80;99.90;;;;;;4946535;29;20503;-80
2021/03/09 03:56:28;;;;;;;15.93;12.10;;;1.80;99.90;;;;;;4942474;29;20404;-80
2021/03/09 03:59:03;;;;;;;11.70;9.60;;;1.90;99.90;;;;;;4943302;29;20848;-80
2021/03/09 04:01:31;;;;;;;15.50;10.00;;;2.00;99.90;;;;;;4943516;29;20396;-80
2021/03/09 04:03:59;;;;;;;13.73;10.13;;;2.00;99.90;;;;;;4942808;29;20912;-80
2021/03/09 04:06:28;;;;;;;18.80;9.17;;;1.90;99.90;;;;;;4943063;29;20401;-80
2021/03/09 04:08:59;;;;;;;12.97;9.70;;;2.00;99.90;;;;;;4943445;29;20448;-79
2021/03/09 04:11:26;;;;;;;17.07;11.50;;;1.90;99.90;;;;;;4942672;29;20943;-80
2021/03/09 04:13:52;;;;;;;20.50;10.80;;;1.90;99.90;;;;;;4943078;29;20459;-80
2021/03/09 04:16:19;;;;;;;14.97;9.80;;;1.80;99.90;;;;;;4943941;29;20399;-80
2021/03/09 04:18:47;;;;;;;13.63;10.13;;;1.80;99.90;;;;;;4943633;29;20435;-80
2021/03/09 04:21:14;;;;;;;16.53;10.40;;;1.80;99.90;;;;;;4946057;29;20397;-79
2021/03/09 04:23:41;;;;;;;12.97;8.73;;;1.70;99.90;;;;;;4956405;29;20396;-79
2021/03/09 04:26:08;;;;;;;14.40;8.87;;;1.70;99.90;;;;;;4960065;29;20375;-77
2021/03/09 04:28:34;;;;;;;14.83;9.80;;;1.80;99.90;;;;;;4957283;29;20397;-79
2021/03/09 04:31:01;;;;;;;18.53;10.47;;;1.80;99.90;;;;;;4955090;29;20392;-79
2021/03/09 04:33:29;;;;;;;18.07;11.27;;;1.80;99.90;;;;;;4954377;29;20460;-80
2021/03/09 04:35:56;;;;;;;19.53;12.23;;;1.70;99.90;;;;;;4955673;29;20474;-79
2021/03/09 04:38:22;;;;;;;19.23;10.30;;;1.70;99.90;;;;;;4952082;29;20460;-80
2021/03/09 04:40:48;;;;;;;13.67;9.17;;;1.70;99.90;;;;;;4949520;29;20455;-80
2021/03/09 04:43:14;;;;;;;13.43;8.93;;;1.60;99.90;;;;;;4944204;29;20411;-80
2021/03/09 04:45:40;;;;;;;15.17;11.07;;;1.60;99.90;;;;;;4945244;28;20412;-79
2021/03/09 04:48:07;;;;;;;20.27;10.70;;;1.70;99.90;;;;;;4966910;28;20427;-80
2021/03/09 04:50:35;;;;;;;15.63;9.33;;;1.70;99.90;;;;;;4961542;28;20518;-80
2021/03/09 04:53:01;;;;;;;15.93;8.23;;;1.70;99.90;;;;;;4961499;28;20957;-80
2021/03/09 04:55:27;;;;;;;18.37;11.87;;;1.70;99.90;;;;;;4962152;28;20483;-80
2021/03/09 04:57:54;;;;;;;20.13;10.00;;;1.70;99.90;;;;;;4960284;29;20884;-80
2021/03/09 05:00:22;;;;;;;19.40;10.07;;;1.60;99.90;;;;;;4961011;29;20462;-79
2021/03/09 05:02:49;;;;;;;16.80;11.87;;;1.70;99.90;;;;;;4961425;29;20895;-79
2021/03/09 05:05:17;;;;;;;20.53;7.90;;;1.70;99.90;;;;;;4962586;29;20417;-80
2021/03/09 05:07:43;;;;;;;12.77;8.83;;;1.80;99.90;;;;;;4962096;29;20435;-80
2021/03/09 05:10:10;;;;;;;15.20;9.40;;;1.70;99.90;;;;;;4963235;28;20459;-80
2021/03/09 05:12:41;;;;;;;18.00;11.60;;;1.70;99.90;;;;;;4962879;28;20407;-79
2021/03/09 05:15:08;;;;;;;13.27;10.07;;;1.70;99.90;;;;;;4965829;29;20438;-76
2021/03/09 05:17:33;;;;;;;17.70;12.43;;;1.80;99.90;;;;;;4978720;28;20387;-77
2021/03/09 05:19:59;;;;;;;23.60;11.80;;;1.70;99.90;;;;;;4978760;28;20395;-76
2021/03/09 05:22:25;;;;;;;26.47;13.10;;;1.90;99.90;;;;;;4978684;28;20190;-76
2021/03/09 05:24:51;;;;;;;13.80;9.30;;;1.90;99.90;;;;;;4977597;29;20187;-76
2021/03/09 05:27:17;;;;;;;20.40;12.20;;;1.90;99.90;;;;;;4977503;28;20167;-77
2021/03/09 05:29:42;;;;;;;14.73;9.87;;;1.90;99.90;;;;;;4977514;29;20190;-76
2021/03/09 05:32:08;;;;;;;14.40;10.10;;;1.90;99.90;;;;;;4978391;28;20166;-77
2021/03/09 05:34:34;;;;;;;11.97;8.50;;;2.00;99.90;;;;;;4978195;28;20199;-78
2021/03/09 05:37:00;;;;;;;14.10;9.53;;;2.00;99.90;;;;;;4976975;29;20317;-77
2021/03/09 05:39:26;;;;;;;15.23;9.60;;;1.80;99.90;;;;;;4977115;28;20471;-77
2021/03/09 05:41:52;;;;;;;14.47;9.50;;;1.60;99.90;;;;;;4965856;28;20171;-78
2021/03/09 05:44:18;;;;;;;23.33;10.80;;;1.80;99.90;;;;;;4959589;29;20206;-78
2021/03/09 05:46:44;;;;;;;13.70;8.70;;;1.80;99.90;;;;;;4960246;28;20434;-78
2021/03/09 05:49:10;;;;;;;18.03;10.87;;;1.70;99.90;;;;;;4960773;28;20299;-78
2021/03/09 05:51:36;;;;;;;16.10;12.07;;;1.60;99.90;;;;;;4960139;28;20439;-78
2021/03/09 05:54:01;;;;;;;13.00;7.97;;;1.80;99.90;;;;;;4960522;28;20600;-78
2021/03/09 05:56:28;;;;;;;15.73;10.33;;;1.90;99.90;;;;;;4958818;29;20216;-78
2021/03/09 05:58:53;;;;;;;14.93;9.47;;;1.90;99.90;;;;;;4960910;28;20187;-80
2021/03/09 06:01:19;;;;;;;20.60;10.00;;;2.00;99.90;;;;;;4960510;28;20470;-81
2021/03/09 06:03:46;;;;;;;17.13;10.57;;;2.00;99.90;;;;;;4960560;28;20175;-80
2021/03/09 06:06:12;;;;;;;15.97;11.00;;;2.00;99.90;;;;;;4958311;28;20431;-81
2021/03/09 06:08:39;;;;;;;15.10;12.47;;;2.00;99.90;;;;;;4959239;29;20449;-80
2021/03/09 06:11:17;;;;;;;11.60;8.60;;;2.00;99.90;;;;;;4960867;28;20399;-81
2021/03/09 06:13:43;;;;;;;16.30;10.87;;;1.90;99.90;;;;;;4960102;28;20438;-80
2021/03/09 06:16:09;;;;;;;23.30;10.50;;;1.90;99.90;;;;;;4959706;29;20402;-81
2021/03/09 06:18:35;;;;;;;19.80;10.73;;;2.00;99.90;;;;;;4947651;28;20427;-80
2021/03/09 06:21:15;;;;;;;16.10;11.30;;;2.00;99.90;;;;;;4941198;29;20396;-80
2021/03/09 06:23:42;;;;;;;13.67;8.37;;;2.00;99.90;;;;;;4942637;29;20406;-80
2021/03/09 06:26:34;;;;;;;21.37;10.37;;;2.00;99.90;;;;;;4959857;29;20752;-80
2021/03/09 06:29:09;;;;;;;17.40;11.60;;;2.00;99.90;;;;;;4960934;28;20402;-79
2021/03/09 06:31:35;;;;;;;15.90;7.70;;;1.90;99.90;;;;;;4962120;28;20402;-80
2021/03/09 06:34:30;;;;;;;10.67;9.57;;;1.90;99.90;;;;;;4962808;28;20422;-79
2021/03/09 06:37:02;;;;;;;14.63;9.07;;;1.90;99.90;;;;;;4964369;28;21788;-79
2021/03/09 06:40:04;;;;;;;21.73;10.37;;;1.90;99.90;;;;;;4978495;28;20399;-78
2021/03/09 06:42:36;;;;;;;13.17;9.37;;;2.00;99.90;;;;;;4964606;28;20485;-80
2021/03/09 06:45:08;;;;;;;23.27;10.83;;;2.10;99.90;;;;;;4964650;28;20469;-80
2021/03/09 06:47:45;;;;;;;15.93;11.20;;;2.00;99.90;;;;;;4963232;28;20415;-80
2021/03/09 06:50:33;;;;;;;17.47;11.03;;;2.10;99.90;;;;;;4963711;29;20418;-79
2021/03/09 06:53:01;;;;;;;14.30;10.07;;;2.10;99.90;;;;;;4964298;28;20414;-80
2021/03/09 06:55:29;;;;;;;18.90;11.87;;;2.10;99.90;;;;;;4963892;28;20519;-79
2021/03/09 06:58:09;;;;;;;14.03;8.87;;;2.30;99.90;;;;;;4963689;28;20427;-80
2021/03/09 07:00:35;;;;;;;15.50;9.47;;;2.10;99.90;;;;;;4963904;29;20841;-80
2021/03/09 07:03:01;;;;;;;25.07;11.13;;;2.20;99.90;;;;;;4963493;28;20907;-80
2021/03/09 07:05:27;;;;;;;18.20;10.80;;;2.20;99.90;;;;;;4964881;28;20419;-80
2021/03/09 07:07:52;;;;;;;20.90;15.07;;;2.30;99.90;;;;;;4963359;29;20257;-80
2021/03/09 07:10:22;;;;;;;23.53;10.70;;;2.40;99.90;;;;;;4963769;28;20187;-80
2021/03/09 07:12:49;;;;;;;19.20;11.03;;;2.50;99.90;;;;;;4968117;28;20183;-80
2021/03/09 07:15:18;;;;;;;21.13;13.00;;;2.60;99.90;;;;;;4962129;29;20481;-80
2021/03/09 07:17:46;;;;;;;19.07;9.67;;;2.60;99.90;;;;;;4962551;29;20418;-80
2021/03/09 07:20:14;;;;;;;19.37;12.10;;;2.40;99.90;;;;;;4964077;28;20502;-79
2021/03/09 07:22:42;;;;;;;24.77;13.53;;;2.40;99.90;;;;;;4982193;28;20418;-80
2021/03/09 07:25:12;;;;;;;32.00;14.33;;;2.50;99.90;;;;;;4983626;28;20398;-79
2021/03/09 07:28:00;;;;;;;24.40;12.10;;;2.50;99.90;;;;;;4966630;28;20898;-78
2021/03/09 07:30:29;;;;;;;20.13;13.40;;;2.60;99.90;;;;;;4955570;28;20939;-78
2021/03/09 07:32:58;;;;;;;28.10;12.30;;;2.70;99.90;;;;;;4957899;28;20517;-79
2021/03/09 07:35:28;;;;;;;20.53;10.80;;;2.90;99.90;;;;;;4961714;28;20550;-79
2021/03/09 07:38:05;;;;;;;25.47;12.97;;;2.90;99.90;;;;;;4945225;29;20478;-79
2021/03/09 07:40:35;;;;;;;17.33;12.53;;;2.90;99.90;;;;;;4907254;29;20443;-78
2021/03/09 07:43:01;;;;;;;22.43;13.93;;;3.00;99.90;;;;;;4901529;29;20439;-80
2021/03/09 07:45:35;;;;;;;19.83;13.40;;;3.00;99.90;;;;;;4892048;29;20950;-77
2021/03/09 07:48:11;;;;;;;14.17;10.10;;;3.10;99.90;;;;;;4896301;29;20478;-77
2021/03/09 07:50:41;;;;;;;18.97;13.20;;;3.20;99.90;;;;;;4894764;29;20436;-80
2021/03/09 07:53:18;;;;;;;22.53;12.20;;;3.20;99.90;;;;;;4881524;29;20456;-78
2021/03/09 07:55:47;;;;;;;20.07;12.77;;;3.00;99.90;;;;;;4893333;29;20499;-79
2021/03/09 07:58:21;;;;;;;19.90;12.10;;;3.30;99.90;;;;;;4899570;29;20844;-80
2021/03/09 08:01:13;;;;;;;21.03;12.37;;;3.00;99.90;;;;;;4905977;29;20444;-80
2021/03/09 08:03:40;;;;;;;22.90;15.10;;;2.80;99.90;;;;;;4895780;29;20448;-80
2021/03/09 08:06:12;;;;;;;26.73;13.40;;;3.10;99.90;;;;;;4885236;29;20440;-80
2021/03/09 08:08:46;;;;;;;21.90;13.10;;;3.40;99.90;;;;;;4884932;29;20445;-79
2021/03/09 08:11:35;;;;;;;16.80;12.70;;;3.40;99.90;;;;;;4903502;29;20432;-79
2021/03/09 08:14:19;;;;;;;17.33;11.80;;;3.10;99.90;;;;;;4910632;29;20435;-80
2021/03/09 08:16:47;;;;;;;26.47;14.37;;;3.50;99.90;;;;;;4917379;29;20990;-80
2021/03/09 08:19:33;;;;;;;21.37;12.73;;;3.80;99.90;;;;;;4954344;28;20435;-77
2021/03/09 08:22:03;;;;;;;17.50;12.20;;;4.00;99.90;;;;;;4957767;28;20430;-80
2021/03/09 08:24:49;;;;;;;19.67;11.70;;;4.10;99.90;;;;;;4968483;28;20974;-80
2021/03/09 08:27:39;;;;;;;17.43;11.60;;;4.20;99.90;;;;;;4955907;28;20434;-80
2021/03/09 08:30:27;;;;;;;19.17;11.60;;;4.20;99.90;;;;;;4935750;29;20427;-79
2021/03/09 08:32:53;;;;;;;18.17;11.90;;;3.50;99.90;;;;;;4951443;28;20533;-80
2021/03/09 08:35:38;;;;;;;24.30;12.43;;;3.50;99.90;;;;;;4954442;28;20522;-79
2021/03/09 08:38:17;;;;;;;18.30;11.43;;;4.00;99.90;;;;;;4954805;28;20241;-80
2021/03/09 08:41:00;;;;;;;14.30;10.70;;;3.70;99.90;;;;;;4955348;28;20455;-79
2021/03/09 08:43:26;;;;;;;17.20;11.73;;;3.20;99.90;;;;;;4951106;28;20431;-79
2021/03/09 08:45:58;;;;;;;28.80;11.07;;;3.50;99.90;;;;;;4956634;28;20777;-79
2021/03/09 08:48:45;;;;;;;15.40;10.03;;;4.10;99.90;;;;;;4951020;28;20223;-80
2021/03/09 08:51:40;;;;;;;17.63;11.53;;;4.40;99.90;;;;;;4950807;28;20424;-80
2021/03/09 08:54:36;;;;;;;20.90;10.93;;;3.90;99.90;;;;;;4953680;28;20471;-80
2021/03/09 08:57:05;;;;;;;17.47;10.27;;;3.90;99.90;;;;;;4951249;28;20448;-80
2021/03/09 08:59:32;;;;;;;18.57;12.10;;;4.20;99.90;;;;;;4955428;28;20427;-79
2021/03/09 09:02:08;;;;;;;13.20;10.33;;;4.60;99.90;;;;;;4959633;28;20911;-79
2021/03/09 09:04:34;;;;;;;15.73;10.47;;;5.10;99.90;;;;;;4958335;28;20449;-80
2021/03/09 09:07:15;;;;;;;13.60;8.97;;;5.20;99.90;;;;;;4953630;28;20501;-80
2021/03/09 09:09:41;;;;;;;13.40;9.70;;;5.10;99.90;;;;;;4955195;28;20478;-78
2021/03/09 09:12:26;;;;;;;16.63;10.00;;;5.30;99.90;;;;;;4951374;28;20528;-79
2021/03/09 09:15:04;;;;;;;18.07;12.00;;;5.00;99.90;;;;;;4952128;28;20237;-79
2021/03/09 09:17:31;;;;;;;15.67;9.07;;;5.00;99.90;;;;;;4950934;28;20435;-80
2021/03/09 09:19:58;;;;;;;11.23;9.37;;;5.50;99.90;;;;;;4953091;28;20475;-80
2021/03/09 09:22:25;;;;;;;16.67;9.67;;;5.50;99.90;;;;;;4951624;28;20428;-80
2021/03/09 09:24:56;;;;;;;14.33;9.93;;;6.00;99.90;;;;;;4948783;28;20439;-80
2021/03/09 09:27:22;;;;;;;15.57;10.43;;;6.80;99.90;;;;;;4960524;28;21001;-80
2021/03/09 09:29:56;;;;;;;17.40;11.00;;;7.30;99.90;;;;;;4960313;28;20461;-80
2021/03/09 09:32:23;;;;;;;16.70;9.80;;;7.40;99.90;;;;;;4957238;28;20453;-79
2021/03/09 09:34:58;;;;;;;16.63;10.30;;;7.10;99.90;;;;;;4950565;28;20474;-79
2021/03/09 09:37:24;;;;;;;12.03;9.67;;;5.80;99.90;;;;;;4950317;28;20503;-80
2021/03/09 09:39:50;;;;;;;19.60;10.50;;;5.60;99.90;;;;;;4956727;28;20510;-80
2021/03/09 09:42:18;;;;;;;15.57;10.17;;;6.10;99.90;;;;;;4954001;28;20446;-80
2021/03/09 09:44:50;;;;;;;16.40;9.90;;;7.30;99.90;;;;;;4957432;28;20438;-78
2021/03/09 09:47:41;;;;;;;15.30;10.10;;;7.90;99.90;;;;;;4956696;28;20446;-84
2021/03/09 09:50:07;;;;;;;13.50;10.87;;;8.60;99.90;;;;;;4958806;28;20434;-80
2021/03/09 09:52:33;;;;;;;21.30;10.93;;;7.90;99.90;;;;;;4959492;28;20799;-81
2021/03/09 09:54:59;;;;;;;18.27;11.53;;;9.00;99.90;;;;;;4959446;28;20513;-80
2021/03/09 09:57:25;;;;;;;22.37;11.17;;;10.20;99.90;;;;;;4958037;28;20438;-81
2021/03/09 09:59:55;;;;;;;16.43;11.60;;;10.50;99.90;;;;;;4960316;28;20205;-80
2021/03/09 10:02:23;;;;;;;18.13;10.10;;;9.90;99.90;;;;;;4958265;29;20222;-80
2021/03/09 10:04:51;;;;;;;14.10;8.97;;;8.50;99.90;;;;;;4955209;28;20475;-80
2021/03/09 10:07:23;;;;;;;19.07;11.20;;;7.80;99.90;;;;;;4959832;28;20447;-79
2021/03/09 10:10:09;;;;;;;14.97;10.03;;;7.50;99.90;;;;;;4940164;29;20450;-80
2021/03/09 10:12:38;;;;;;;16.20;10.10;;;7.40;99.90;;;;;;4961058;28;20437;-78
2021/03/09 10:15:07;;;;;;;27.60;13.10;;;7.20;99.90;;;;;;4957883;28;20463;-80
2021/03/09 10:17:34;;;;;;;12.90;9.63;;;8.40;99.90;;;;;;4927585;29;20438;-80
2021/03/09 10:20:00;;;;;;;23.97;11.30;;;9.50;99.90;;;;;;4960814;28;20952;-80
2021/03/09 10:22:27;;;;;;;15.23;10.27;;;10.00;99.90;;;;;;4956880;28;20442;-80
2021/03/09 10:25:09;;;;;;;17.90;11.23;;;10.30;99.90;;;;;;4959588;28;20452;-80
2021/03/09 10:27:35;;;;;;;16.43;10.63;;;10.40;99.90;;;;;;4956712;29;20459;-80
2021/03/09 10:30:03;;;;;;;16.27;10.67;;;10.90;99.90;;;;;;4955589;28;20446;-80
2021/03/09 10:32:29;;;;;;;18.50;11.33;;;9.60;99.90;;;;;;4953744;28;20199;-80
2021/03/09 10:34:58;;;;;;;13.63;11.43;;;10.90;99.90;;;;;;4956556;28;20805;-78
2021/03/09 10:37:42;;;;;;;15.37;9.30;;;11.20;99.90;;;;;;4935050;28;20247;-78
2021/03/09 10:40:13;;;;;;;14.47;9.10;;;11.30;99.90;;;;;;4954766;28;20431;-80
2021/03/09 10:42:47;;;;;;;15.60;10.03;;;11.20;99.90;;;;;;4949487;28;20551;-80
2021/03/09 10:45:28;;;;;;;15.93;10.30;;;11.10;99.90;;;;;;4941082;28;20432;-80
2021/03/09 10:48:00;;;;;;;14.30;9.67;;;12.30;99.90;;;;;;4952128;28;20438;-79
2021/03/09 10:50:31;;;;;;;15.20;9.77;;;11.70;99.90;;;;;;4951844;28;21024;-78
2021/03/09 10:52:57;;;;;;;12.23;9.57;;;11.00;99.90;;;;;;4953404;28;20435;-79
2021/03/09 10:55:23;;;;;;;12.70;9.10;;;10.20;99.90;;;;;;4953377;28;20826;-80
2021/03/09 10:57:49;;;;;;;16.67;11.30;;;10.90;99.90;;;;;;4954540;28;20435;-79
2021/03/09 11:00:19;;;;;;;24.23;12.97;;;11.20;99.90;;;;;;4954707;28;21031;-80
2021/03/09 11:02:46;;;;;;;13.80;10.07;;;11.70;99.90;;;;;;4950644;28;20797;-81
2021/03/09 11:05:13;;;;;;;13.10;9.13;;;12.00;99.50;;;;;;4952778;28;20983;-79
2021/03/09 11:07:39;;;;;;;17.27;10.90;;;12.10;99.90;;;;;;4949591;29;20446;-80
2021/03/09 11:10:07;;;;;;;13.90;10.13;;;12.80;98.20;;;;;;4943343;29;20451;-81
2021/03/09 11:12:33;;;;;;;14.33;9.20;;;13.10;95.20;;;;;;4928645;29;20202;-80
2021/03/09 11:14:59;;;;;;;18.10;9.97;;;12.60;93.10;;;;;;4938575;29;20477;-80
2021/03/09 11:17:25;;;;;;;13.40;10.67;;;11.90;93.90;;;;;;4929407;29;20436;-81
2021/03/09 11:19:51;;;;;;;13.37;9.00;;;11.00;95.20;;;;;;4934287;29;20168;-81
2021/03/09 11:22:17;;;;;;;15.60;10.20;;;11.20;96.50;;;;;;4916075;29;20290;-80
2021/03/09 11:24:43;;;;;;;12.80;9.40;;;10.80;98.80;;;;;;4902126;29;20440;-80
2021/03/09 11:27:09;;;;;;;12.87;9.57;;;10.80;97.00;;;;;;4932062;29;20436;-79
2021/03/09 11:29:37;;;;;;;11.83;9.10;;;11.10;97.00;;;;;;4936123;29;20195;-79
2021/03/09 11:32:04;;;;;;;15.10;9.33;;;11.30;93.50;;;;;;4934830;29;20445;-79
2021/03/09 11:34:33;;;;;;;13.13;8.73;;;11.10;94.10;;;;;;4933317;29;20463;-79
2021/03/09 11:36:59;;;;;;;13.30;8.17;;;11.00;92.90;;;;;;4924806;29;20486;-82
2021/03/09 11:39:26;;;;;;;10.50;8.77;;;9.90;96.30;;;;;;4937375;29;20928;-81
2021/03/09 11:41:53;;;;;;;13.77;9.53;;;10.40;97.10;;;;;;4940729;29;21017;-81
2021/03/09 11:44:19;;;;;;;13.97;10.77;;;10.60;97.00;;;;;;4946839;28;20530;-82
2021/03/09 11:46:46;;;;;;;12.60;9.90;;;10.80;97.90;;;;;;4933027;28;20431;-80
2021/03/09 11:49:12;;;;;;;14.00;10.00;;;10.70;96.30;;;;;;4964094;28;20435;-82
2021/03/09 11:51:38;;;;;;;13.37;9.37;;;10.40;96.60;;;;;;4964296;28;20431;-83
2021/03/09 11:54:04;;;;;;;11.60;9.13;;;10.20;96.10;;;;;;4957754;28;21065;-82
2021/03/09 11:56:30;;;;;;;16.23;9.43;;;10.00;95.70;;;;;;4954779;28;20278;-82
2021/03/09 11:58:56;;;;;;;12.73;8.80;;;10.50;96.40;;;;;;4957540;28;20499;-81
2021/03/09 12:01:22;;;;;;;12.87;7.57;;;10.90;95.30;;;;;;4954999;28;20430;-79
2021/03/09 12:03:48;;;;;;;14.60;7.60;;;11.40;93.80;;;;;;4951668;28;20241;-82
2021/03/09 12:06:14;;;;;;;11.23;7.80;;;11.70;93.80;;;;;;4955896;28;20199;-81
2021/03/09 12:08:40;;;;;;;11.33;5.87;;;11.90;90.20;;;;;;4955855;28;20199;-81
2021/03/09 12:11:06;;;;;;;7.90;6.80;;;10.20;81.90;;;;;;4957640;28;20443;-81
2021/03/09 12:13:32;;;;;;;9.20;7.40;;;9.70;91.00;;;;;;4956344;28;20247;-82
2021/03/09 12:15:58;;;;;;;8.67;7.60;;;10.80;91.20;;;;;;4955506;29;20966;-81
2021/03/09 12:18:24;;;;;;;8.10;5.77;;;9.30;90.60;;;;;;4952109;28;20434;-81
2021/03/09 12:20:50;;;;;;;9.10;7.00;;;9.60;92.50;;;;;;4952484;28;20477;-80
2021/03/09 12:23:15;;;;;;;8.97;6.90;;;10.80;90.00;;;;;;4953393;28;20199;-83
2021/03/09 12:25:41;;;;;;;9.10;6.80;;;11.80;87.00;;;;;;4950898;28;20262;-82
2021/03/09 12:28:07;;;;;;;10.50;7.20;;;11.90;90.60;;;;;;4953292;28;20211;-82
2021/03/09 12:30:33;;;;;;;7.77;6.07;;;11.70;84.80;;;;;;4953800;28;20194;-83
2021/03/09 12:32:59;;;;;;;9.90;6.57;;;11.90;80.00;;;;;;4952139;28;20427;-81
2021/03/09 12:35:26;;;;;;;9.47;7.90;;;11.90;83.50;;;;;;4953176;28;20203;-83
2021/03/09 12:37:52;;;;;;;9.63;7.77;;;13.50;81.20;;;;;;4951710;28;20545;-82
2021/03/09 12:40:19;;;;;;;8.57;6.97;;;13.50;76.90;;;;;;4951460;28;20482;-82
2021/03/09 12:42:44;;;;;;;12.20;8.27;;;12.70;77.80;;;;;;4958093;28;20214;-78
2021/03/09 12:45:11;;;;;;;8.03;6.93;;;12.00;82.00;;;;;;4961576;28;20447;-80
2021/03/09 12:47:37;;;;;;;12.23;8.10;;;12.70;78.50;;;;;;4958217;28;21363;-81
2021/03/09 12:50:05;;;;;;;6.77;6.07;;;12.60;78.10;;;;;;4956922;28;20454;-82